createdAt,value
2017-08-13T00:00:02.249Z,0
2017-08-13T00:01:02.973Z,0
2017-08-13T00:02:03.690Z,0
2017-08-13T00:03:04.415Z,0
2017-08-13T00:04:05.133Z,0
2017-08-13T00:05:05.856Z,0
2017-08-13T00:06:06.578Z,0
2017-08-13T00:07:07.329Z,0
2017-08-13T00:08:08.044Z,0
2017-08-13T00:09:08.790Z,0
2017-08-13T00:10:09.510Z,0
2017-08-13T00:11:10.253Z,0
2017-08-13T00:12:10.974Z,0
2017-08-13T00:13:11.694Z,0
2017-08-13T00:14:12.418Z,0
2017-08-13T00:15:13.137Z,0
2017-08-13T00:16:13.858Z,0
2017-08-13T00:17:14.581Z,0
2017-08-13T00:18:15.306Z,0
2017-08-13T00:19:16.023Z,0
2017-08-13T00:20:16.746Z,0
2017-08-13T00:21:17.465Z,0
2017-08-13T00:22:18.206Z,0
2017-08-13T00:23:18.929Z,0
2017-08-13T00:24:19.670Z,0
2017-08-13T00:25:20.390Z,0
2017-08-13T00:26:21.114Z,0
2017-08-13T00:27:21.835Z,0
2017-08-13T00:28:22.557Z,0
2017-08-13T00:29:23.301Z,0
2017-08-13T00:30:24.021Z,0
2017-08-13T00:31:24.738Z,0
2017-08-13T00:32:25.462Z,0
2017-08-13T00:33:26.180Z,0
2017-08-13T00:34:26.904Z,0
2017-08-13T00:35:27.649Z,0
2017-08-13T00:36:28.390Z,0
2017-08-13T00:37:29.105Z,0
2017-08-13T00:38:29.828Z,0
2017-08-13T00:39:30.549Z,0
2017-08-13T00:40:31.272Z,0
2017-08-13T00:41:31.991Z,0
2017-08-13T00:42:32.719Z,0
2017-08-13T00:43:33.433Z,0
2017-08-13T00:44:34.154Z,0
2017-08-13T00:45:34.875Z,0
2017-08-13T00:46:35.617Z,0
2017-08-13T00:47:36.338Z,0
2017-08-13T00:48:37.060Z,0
2017-08-13T00:49:37.777Z,0
2017-08-13T00:50:38.501Z,0
2017-08-13T00:51:39.220Z,0
2017-08-13T00:52:39.939Z,0
2017-08-13T00:53:40.680Z,0
2017-08-13T00:54:41.403Z,0
2017-08-13T00:55:42.120Z,0
2017-08-13T00:56:42.841Z,0
2017-08-13T00:57:43.564Z,0
2017-08-13T00:58:44.280Z,0
2017-08-13T00:59:45.001Z,0
2017-08-13T01:00:45.724Z,0
2017-08-13T01:01:46.448Z,0
2017-08-13T01:02:47.170Z,0
2017-08-13T01:03:47.887Z,0
2017-08-13T01:04:48.609Z,0
2017-08-13T01:05:49.332Z,0
2017-08-13T01:06:50.056Z,0
2017-08-13T01:07:50.775Z,0
2017-08-13T01:08:51.499Z,0
2017-08-13T01:09:52.218Z,0
2017-08-13T01:10:52.959Z,0
2017-08-13T01:11:53.679Z,0
2017-08-13T01:12:54.402Z,0
2017-08-13T01:13:55.127Z,0
2017-08-13T01:14:55.846Z,0
2017-08-13T01:15:56.569Z,0
2017-08-13T01:16:57.289Z,0
2017-08-13T01:17:58.012Z,0
2017-08-13T01:18:58.733Z,0
2017-08-13T01:19:59.455Z,0
2017-08-13T01:21:00.176Z,0
2017-08-13T01:22:00.902Z,0
2017-08-13T01:23:01.641Z,0
2017-08-13T01:24:02.366Z,0
2017-08-13T01:25:03.086Z,0
2017-08-13T01:26:03.833Z,0
2017-08-13T01:27:04.551Z,0
2017-08-13T01:28:05.274Z,0
2017-08-13T01:29:05.992Z,0
2017-08-13T01:30:06.720Z,0
2017-08-13T01:31:07.438Z,0
2017-08-13T01:32:08.163Z,0
2017-08-13T01:33:08.885Z,0
2017-08-13T01:34:09.606Z,0
2017-08-13T01:35:10.329Z,0
2017-08-13T01:36:11.049Z,0
2017-08-13T01:37:11.769Z,0
2017-08-13T01:38:12.489Z,0
2017-08-13T01:39:13.235Z,0
2017-08-13T01:40:13.952Z,0
2017-08-13T01:41:14.697Z,0
2017-08-13T01:42:15.445Z,0
2017-08-13T01:43:16.167Z,0
2017-08-13T01:44:16.885Z,0
2017-08-13T01:45:17.605Z,0
2017-08-13T01:46:18.329Z,0
2017-08-13T01:47:19.072Z,0
2017-08-13T01:48:19.794Z,0
2017-08-13T01:49:20.517Z,0
2017-08-13T01:50:21.265Z,0
2017-08-13T01:51:22.012Z,0
2017-08-13T01:52:22.734Z,0
2017-08-13T01:53:23.456Z,0
2017-08-13T01:54:24.174Z,0
2017-08-13T01:55:24.896Z,0
2017-08-13T01:56:25.617Z,0
2017-08-13T01:57:26.363Z,0
2017-08-13T01:58:27.082Z,0
2017-08-13T01:59:27.806Z,0
2017-08-13T02:00:28.524Z,0
2017-08-13T02:01:29.247Z,0
2017-08-13T02:02:29.968Z,0
2017-08-13T02:03:30.716Z,0
2017-08-13T02:04:31.439Z,0
2017-08-13T02:05:32.164Z,0
2017-08-13T02:06:32.892Z,0
2017-08-13T02:07:33.605Z,0
2017-08-13T02:08:34.329Z,0
2017-08-13T02:09:35.050Z,0
2017-08-13T02:10:35.774Z,0
2017-08-13T02:11:36.493Z,0
2017-08-13T02:12:37.216Z,0
2017-08-13T02:13:37.963Z,0
2017-08-13T02:14:38.684Z,0
2017-08-13T02:15:39.404Z,0
2017-08-13T02:16:40.122Z,0
2017-08-13T02:17:40.846Z,0
2017-08-13T02:18:41.568Z,0
2017-08-13T02:19:42.291Z,0
2017-08-13T02:20:43.043Z,0
2017-08-13T02:21:43.759Z,0
2017-08-13T02:22:44.483Z,0
2017-08-13T02:23:45.206Z,0
2017-08-13T02:24:45.930Z,0
2017-08-13T02:25:46.644Z,0
2017-08-13T02:26:47.367Z,0
2017-08-13T02:27:48.088Z,0
2017-08-13T02:28:48.810Z,0
2017-08-13T02:29:49.535Z,0
2017-08-13T02:30:50.259Z,0
2017-08-13T02:31:50.982Z,0
2017-08-13T02:32:51.725Z,0
2017-08-13T02:33:52.446Z,0
2017-08-13T02:34:53.167Z,0
2017-08-13T02:35:53.891Z,0
2017-08-13T02:36:54.614Z,0
2017-08-13T02:37:55.360Z,0
2017-08-13T02:38:56.079Z,0
2017-08-13T02:39:56.803Z,0
2017-08-13T02:40:57.529Z,0
2017-08-13T02:41:58.250Z,0
2017-08-13T02:42:58.970Z,0
2017-08-13T02:43:59.712Z,0
2017-08-13T02:45:00.439Z,0
2017-08-13T02:46:01.159Z,0
2017-08-13T02:47:01.881Z,0
2017-08-13T02:48:02.605Z,0
2017-08-13T02:49:03.324Z,0
2017-08-13T02:50:04.070Z,0
2017-08-13T02:51:04.791Z,0
2017-08-13T02:52:05.513Z,0
2017-08-13T02:53:06.236Z,0
2017-08-13T02:54:06.957Z,0
2017-08-13T02:55:07.677Z,0
2017-08-13T02:56:08.421Z,0
2017-08-13T02:57:09.165Z,0
2017-08-13T02:58:09.908Z,0
2017-08-13T02:59:10.654Z,0
2017-08-13T03:00:11.378Z,0
2017-08-13T03:01:12.097Z,0
2017-08-13T03:02:12.845Z,0
2017-08-13T03:03:13.571Z,0
2017-08-13T03:04:14.318Z,0
2017-08-13T03:05:15.038Z,0
2017-08-13T03:06:15.760Z,0
2017-08-13T03:07:16.506Z,0
2017-08-13T03:08:17.227Z,0
2017-08-13T03:09:17.984Z,0
2017-08-13T03:10:18.697Z,0
2017-08-13T03:11:19.420Z,0
2017-08-13T03:12:20.143Z,0
2017-08-13T03:13:20.884Z,0
2017-08-13T03:14:21.607Z,0
2017-08-13T03:15:22.353Z,0
2017-08-13T03:16:23.077Z,0
2017-08-13T03:17:23.796Z,0
2017-08-13T03:18:24.541Z,0
2017-08-13T03:19:25.262Z,0
2017-08-13T03:20:25.984Z,0
2017-08-13T03:21:26.706Z,0
2017-08-13T03:22:27.426Z,0
2017-08-13T03:23:28.151Z,0
2017-08-13T03:24:28.871Z,0
2017-08-13T03:25:29.592Z,0
2017-08-13T03:26:30.317Z,0
2017-08-13T03:27:31.037Z,0
2017-08-13T03:28:31.758Z,0
2017-08-13T03:29:32.482Z,0
2017-08-13T03:30:33.203Z,0
2017-08-13T03:31:33.927Z,0
2017-08-13T03:32:34.673Z,0
2017-08-13T03:33:35.421Z,0
2017-08-13T03:34:36.166Z,0
2017-08-13T03:35:36.912Z,0
2017-08-13T03:36:37.632Z,4
2017-08-13T03:37:38.379Z,4
2017-08-13T03:38:39.101Z,0
2017-08-13T03:39:39.846Z,4
2017-08-13T03:40:40.568Z,4
2017-08-13T03:41:41.291Z,4
2017-08-13T03:42:42.012Z,4
2017-08-13T03:43:42.759Z,4
2017-08-13T03:44:43.479Z,8
2017-08-13T03:45:44.205Z,8
2017-08-13T03:46:44.920Z,8
2017-08-13T03:47:45.644Z,12
2017-08-13T03:48:46.389Z,12
2017-08-13T03:49:47.113Z,12
2017-08-13T03:50:47.858Z,20
2017-08-13T03:51:48.583Z,20
2017-08-13T03:52:49.326Z,24
2017-08-13T03:53:50.052Z,28
2017-08-13T03:54:50.801Z,28
2017-08-13T03:55:51.548Z,32
2017-08-13T03:56:52.270Z,36
2017-08-13T03:57:53.016Z,44
2017-08-13T03:58:53.764Z,52
2017-08-13T03:59:54.483Z,56
2017-08-13T04:00:55.208Z,64
2017-08-13T04:01:55.933Z,76
2017-08-13T04:02:56.672Z,80
2017-08-13T04:03:57.420Z,92
2017-08-13T04:04:58.143Z,104
2017-08-13T04:05:58.869Z,112
2017-08-13T04:06:59.619Z,124
2017-08-13T04:08:00.367Z,140
2017-08-13T04:09:01.086Z,152
2017-08-13T04:10:01.811Z,164
2017-08-13T04:11:02.531Z,180
2017-08-13T04:12:03.255Z,196
2017-08-13T04:13:03.995Z,212
2017-08-13T04:14:04.718Z,228
2017-08-13T04:15:05.441Z,248
2017-08-13T04:16:06.169Z,268
2017-08-13T04:17:06.896Z,284
2017-08-13T04:18:07.621Z,304
2017-08-13T04:19:08.342Z,324
2017-08-13T04:20:09.090Z,348
2017-08-13T04:21:09.812Z,372
2017-08-13T04:22:10.536Z,392
2017-08-13T04:23:11.264Z,416
2017-08-13T04:24:11.989Z,440
2017-08-13T04:25:12.736Z,464
2017-08-13T04:26:13.461Z,488
2017-08-13T04:27:14.184Z,516
2017-08-13T04:28:14.913Z,540
2017-08-13T04:29:15.643Z,564
2017-08-13T04:30:16.386Z,592
2017-08-13T04:31:17.112Z,620
2017-08-13T04:32:17.838Z,644
2017-08-13T04:33:18.561Z,672
2017-08-13T04:34:19.288Z,700
2017-08-13T04:35:20.014Z,724
2017-08-13T04:36:20.741Z,752
2017-08-13T04:37:21.488Z,784
2017-08-13T04:38:22.216Z,808
2017-08-13T04:39:22.941Z,836
2017-08-13T04:40:23.661Z,868
2017-08-13T04:41:24.386Z,892
2017-08-13T04:42:25.114Z,920
2017-08-13T04:43:25.863Z,948
2017-08-13T04:44:26.592Z,976
2017-08-13T04:45:27.339Z,1004
2017-08-13T04:46:28.068Z,1032
2017-08-13T04:47:28.793Z,1060
2017-08-13T04:48:29.518Z,1088
2017-08-13T04:49:30.245Z,1120
2017-08-13T04:50:30.969Z,1148
2017-08-13T04:51:31.719Z,1172
2017-08-13T04:52:32.470Z,1200
2017-08-13T04:53:33.195Z,1228
2017-08-13T04:54:33.918Z,1252
2017-08-13T04:55:34.650Z,1280
2017-08-13T04:56:35.373Z,1308
2017-08-13T04:57:36.125Z,1328
2017-08-13T04:58:36.847Z,1348
2017-08-13T04:59:37.576Z,1376
2017-08-13T05:00:38.302Z,1400
2017-08-13T05:01:39.029Z,1420
2017-08-13T05:02:39.788Z,1440
2017-08-13T05:03:40.534Z,1468
2017-08-13T05:04:41.260Z,1488
2017-08-13T05:05:41.989Z,1508
2017-08-13T05:06:42.715Z,1532
2017-08-13T05:07:43.440Z,1552
2017-08-13T05:08:44.165Z,1572
2017-08-13T05:09:44.920Z,1592
2017-08-13T05:10:45.647Z,1612
2017-08-13T05:11:46.400Z,1624
2017-08-13T05:12:47.125Z,1644
2017-08-13T05:13:47.874Z,1664
2017-08-13T05:14:48.599Z,1680
2017-08-13T05:15:49.325Z,1700
2017-08-13T05:16:50.077Z,1720
2017-08-13T05:17:50.801Z,1732
2017-08-13T05:18:51.546Z,1752
2017-08-13T05:19:52.276Z,1768
2017-08-13T05:20:53.022Z,1784
2017-08-13T05:21:53.771Z,1804
2017-08-13T05:22:54.496Z,1824
2017-08-13T05:23:55.226Z,1844
2017-08-13T05:24:55.950Z,1860
2017-08-13T05:25:56.675Z,1888
2017-08-13T05:26:57.406Z,1900
2017-08-13T05:27:58.135Z,1920
2017-08-13T05:28:58.863Z,1936
2017-08-13T05:29:59.588Z,1956
2017-08-13T05:31:00.313Z,1976
2017-08-13T05:32:01.058Z,2000
2017-08-13T05:33:01.792Z,2024
2017-08-13T05:34:02.517Z,2044
2017-08-13T05:35:03.245Z,2068
2017-08-13T05:36:03.983Z,2088
2017-08-13T05:37:04.695Z,2108
2017-08-13T05:38:05.426Z,2124
2017-08-13T05:39:06.174Z,2140
2017-08-13T05:40:06.899Z,2152
2017-08-13T05:41:07.630Z,2168
2017-08-13T05:42:08.380Z,2188
2017-08-13T05:43:09.117Z,2200
2017-08-13T05:44:09.833Z,2216
2017-08-13T05:45:10.580Z,2236
2017-08-13T05:46:11.308Z,2252
2017-08-13T05:47:12.035Z,2272
2017-08-13T05:48:12.786Z,2292
2017-08-13T05:49:13.510Z,2304
2017-08-13T05:50:14.237Z,2324
2017-08-13T05:51:14.964Z,2336
2017-08-13T05:52:15.691Z,2352
2017-08-13T05:53:16.420Z,2368
2017-08-13T05:54:17.154Z,2376
2017-08-13T05:55:17.875Z,2400
2017-08-13T05:56:18.629Z,2412
2017-08-13T05:57:19.356Z,2436
2017-08-13T05:58:20.080Z,2460
2017-08-13T05:59:20.810Z,2476
2017-08-13T06:00:21.537Z,2492
2017-08-13T06:01:22.267Z,2504
2017-08-13T06:02:22.996Z,2524
2017-08-13T06:03:23.721Z,2540
2017-08-13T06:04:24.449Z,2556
2017-08-13T06:05:25.176Z,2584
2017-08-13T06:06:25.910Z,2592
2017-08-13T06:07:26.632Z,2604
2017-08-13T06:08:27.361Z,2624
2017-08-13T06:09:28.089Z,2640
2017-08-13T06:10:28.841Z,2652
2017-08-13T06:11:29.567Z,2664
2017-08-13T06:12:30.295Z,2676
2017-08-13T06:13:31.045Z,2704
2017-08-13T06:14:31.775Z,2716
2017-08-13T06:15:32.503Z,2732
2017-08-13T06:16:33.232Z,2744
2017-08-13T06:17:33.963Z,2756
2017-08-13T06:18:34.687Z,2760
2017-08-13T06:19:35.424Z,2760
2017-08-13T06:20:36.157Z,2776
2017-08-13T06:21:36.878Z,2800
2017-08-13T06:22:37.607Z,2816
2017-08-13T06:23:38.335Z,2828
2017-08-13T06:24:39.070Z,2832
2017-08-13T06:25:39.793Z,2844
2017-08-13T06:26:40.521Z,2876
2017-08-13T06:27:41.273Z,2892
2017-08-13T06:28:42.005Z,2900
2017-08-13T06:29:42.738Z,2928
2017-08-13T06:30:43.460Z,2948
2017-08-13T06:31:44.189Z,2952
2017-08-13T06:32:44.916Z,2980
2017-08-13T06:33:45.647Z,2996
2017-08-13T06:34:46.371Z,3008
2017-08-13T06:35:47.100Z,3000
2017-08-13T06:36:47.829Z,3016
2017-08-13T06:37:48.559Z,3040
2017-08-13T06:38:49.295Z,3048
2017-08-13T06:39:50.024Z,3056
2017-08-13T06:40:50.752Z,3072
2017-08-13T06:41:51.482Z,3100
2017-08-13T06:42:52.207Z,3124
2017-08-13T06:43:52.938Z,3152
2017-08-13T06:44:53.691Z,3160
2017-08-13T06:45:54.418Z,3192
2017-08-13T06:46:55.169Z,3224
2017-08-13T06:47:55.899Z,3248
2017-08-13T06:48:56.632Z,3272
2017-08-13T06:49:57.382Z,3320
2017-08-13T06:50:58.112Z,3360
2017-08-13T06:51:58.857Z,3404
2017-08-13T06:52:59.565Z,3480
2017-08-13T06:54:00.299Z,3580
2017-08-13T06:55:01.025Z,3648
2017-08-13T06:56:01.772Z,3732
2017-08-13T06:57:02.500Z,3776
2017-08-13T06:58:03.233Z,3816
2017-08-13T06:59:03.964Z,3872
2017-08-13T07:00:04.707Z,3920
2017-08-13T07:01:05.440Z,3960
2017-08-13T07:02:06.168Z,4000
2017-08-13T07:03:06.899Z,4048
2017-08-13T07:04:07.633Z,4092
2017-08-13T07:05:08.363Z,4148
2017-08-13T07:06:09.089Z,4224
2017-08-13T07:07:09.821Z,4268
2017-08-13T07:08:10.554Z,4316
2017-08-13T07:09:11.284Z,4372
2017-08-13T07:10:12.012Z,4408
2017-08-13T07:11:12.766Z,4484
2017-08-13T07:12:13.499Z,4544
2017-08-13T07:13:14.234Z,4572
2017-08-13T07:14:14.971Z,4592
2017-08-13T07:15:15.697Z,4644
2017-08-13T07:16:16.432Z,4720
2017-08-13T07:17:17.187Z,4784
2017-08-13T07:18:17.941Z,4860
2017-08-13T07:19:18.674Z,4948
2017-08-13T07:20:19.402Z,5020
2017-08-13T07:21:20.138Z,5132
2017-08-13T07:22:20.871Z,5268
2017-08-13T07:23:21.602Z,5524
2017-08-13T07:24:22.339Z,5896
2017-08-13T07:25:23.067Z,6372
2017-08-13T07:26:23.805Z,6972
2017-08-13T07:27:24.539Z,7424
2017-08-13T07:28:25.266Z,7460
2017-08-13T07:29:26.021Z,7224
2017-08-13T07:30:26.777Z,6808
2017-08-13T07:31:27.510Z,6712
2017-08-13T07:32:28.244Z,6516
2017-08-13T07:33:29.000Z,6588
2017-08-13T07:34:29.733Z,6696
2017-08-13T07:35:30.469Z,6964
2017-08-13T07:36:31.202Z,7440
2017-08-13T07:37:31.933Z,7836
2017-08-13T07:38:32.669Z,8208
2017-08-13T07:39:33.401Z,8532
2017-08-13T07:40:34.137Z,9004
2017-08-13T07:41:34.897Z,9488
2017-08-13T07:42:35.630Z,10224
2017-08-13T07:43:36.392Z,10692
2017-08-13T07:44:37.126Z,10892
2017-08-13T07:45:37.863Z,11108
2017-08-13T07:46:38.599Z,13456
2017-08-13T07:47:39.335Z,29376
2017-08-13T07:48:40.075Z,46624
2017-08-13T07:49:40.832Z,51360
2017-08-13T07:50:41.594Z,52608
2017-08-13T07:51:42.332Z,51712
2017-08-13T07:52:43.071Z,52256
2017-08-13T07:53:43.811Z,51680
2017-08-13T07:54:44.557Z,51936
2017-08-13T07:55:45.297Z,53216
2017-08-13T07:56:46.038Z,56320
2017-08-13T07:57:46.804Z,58272
2017-08-13T07:58:47.548Z,57792
2017-08-13T07:59:48.285Z,12320
2017-08-13T08:00:49.030Z,58048
2017-08-13T08:01:49.771Z,57056
2017-08-13T08:02:50.517Z,56608
2017-08-13T08:03:51.256Z,56608
2017-08-13T08:04:52.003Z,60064
2017-08-13T08:05:52.744Z,61632
2017-08-13T08:06:53.489Z,60928
2017-08-13T08:07:54.254Z,61408
2017-08-13T08:08:55.000Z,61952
2017-08-13T08:09:55.765Z,61920
2017-08-13T08:10:56.516Z,61536
2017-08-13T08:11:57.256Z,58784
2017-08-13T08:12:57.997Z,61600
2017-08-13T08:13:58.740Z,60640
2017-08-13T08:14:59.484Z,61248
2017-08-13T08:16:00.219Z,40512
2017-08-13T08:17:00.962Z,16592
2017-08-13T08:18:01.703Z,61824
2017-08-13T08:19:02.439Z,48128
2017-08-13T08:20:03.181Z,64416
2017-08-13T08:21:03.924Z,64448
2017-08-13T08:22:04.667Z,65120
2017-08-13T08:23:05.409Z,66080
2017-08-13T08:24:06.149Z,65024
2017-08-13T08:25:06.892Z,63616
2017-08-13T08:26:07.653Z,65536
2017-08-13T08:27:08.395Z,67520
2017-08-13T08:28:09.158Z,65568
2017-08-13T08:29:09.897Z,63232
2017-08-13T08:30:10.641Z,64352
2017-08-13T08:31:11.399Z,62592
2017-08-13T08:32:12.140Z,63680
2017-08-13T08:33:12.882Z,64416
2017-08-13T08:34:13.621Z,63168
2017-08-13T08:35:14.361Z,66432
2017-08-13T08:36:15.129Z,67744
2017-08-13T08:37:15.871Z,70848
2017-08-13T08:38:16.613Z,72192
2017-08-13T08:39:17.359Z,72640
2017-08-13T08:40:18.100Z,72576
2017-08-13T08:41:18.869Z,72256
2017-08-13T08:42:19.612Z,74304
2017-08-13T08:43:20.369Z,68064
2017-08-13T08:44:21.097Z,42880
2017-08-13T08:45:21.838Z,15472
2017-08-13T08:46:22.605Z,33824
2017-08-13T08:47:23.346Z,71936
2017-08-13T08:48:24.086Z,13348
2017-08-13T08:49:24.829Z,37056
2017-08-13T08:50:25.594Z,68704
2017-08-13T08:51:26.333Z,69248
2017-08-13T08:52:27.078Z,70624
2017-08-13T08:53:27.815Z,68064
2017-08-13T08:54:28.559Z,67328
2017-08-13T08:55:29.302Z,67680
2017-08-13T08:56:30.043Z,70016
2017-08-13T08:57:30.784Z,69184
2017-08-13T08:58:31.523Z,69280
2017-08-13T08:59:32.271Z,67872
2017-08-13T09:00:33.033Z,70432
2017-08-13T09:01:33.777Z,73088
2017-08-13T09:02:34.528Z,73024
2017-08-13T09:03:35.266Z,72576
2017-08-13T09:04:36.031Z,70496
2017-08-13T09:05:36.773Z,13168
2017-08-13T09:06:37.512Z,40192
2017-08-13T09:07:38.259Z,71744
2017-08-13T09:08:39.001Z,23872
2017-08-13T09:09:39.740Z,27680
2017-08-13T09:10:40.478Z,67040
2017-08-13T09:11:41.223Z,78432
2017-08-13T09:12:41.988Z,75456
2017-08-13T09:13:42.731Z,75872
2017-08-13T09:14:43.496Z,80000
2017-08-13T09:15:44.237Z,79008
2017-08-13T09:16:44.993Z,79936
2017-08-13T09:17:45.748Z,76352
2017-08-13T09:18:46.486Z,80640
2017-08-13T09:19:47.250Z,84000
2017-08-13T09:20:47.992Z,68256
2017-08-13T09:21:48.737Z,15748
2017-08-13T09:22:49.478Z,14792
2017-08-13T09:23:50.219Z,81184
2017-08-13T09:24:50.962Z,84928
2017-08-13T09:25:51.704Z,83744
2017-08-13T09:26:52.442Z,84704
2017-08-13T09:27:53.187Z,24864
2017-08-13T09:28:53.951Z,81952
2017-08-13T09:29:54.692Z,84800
2017-08-13T09:30:55.440Z,82016
2017-08-13T09:31:56.184Z,82400
2017-08-13T09:32:56.927Z,55328
2017-08-13T09:33:57.672Z,80096
2017-08-13T09:34:58.414Z,19232
2017-08-13T09:35:59.154Z,14184
2017-08-13T09:36:59.898Z,10468
2017-08-13T09:38:00.657Z,9764
2017-08-13T09:39:01.399Z,21344
2017-08-13T09:40:02.147Z,85920
2017-08-13T09:41:02.882Z,90144
2017-08-13T09:42:03.633Z,87424
2017-08-13T09:43:04.370Z,40448
2017-08-13T09:44:05.115Z,13688
2017-08-13T09:45:05.853Z,84640
2017-08-13T09:46:06.599Z,85344
2017-08-13T09:47:07.362Z,88608
2017-08-13T09:48:08.106Z,87264
2017-08-13T09:49:08.846Z,90656
2017-08-13T09:50:09.589Z,88096
2017-08-13T09:51:10.332Z,87456
2017-08-13T09:52:11.072Z,89472
2017-08-13T09:53:11.817Z,90464
2017-08-13T09:54:12.560Z,93504
2017-08-13T09:55:13.326Z,92032
2017-08-13T09:56:14.071Z,93088
2017-08-13T09:57:14.819Z,89472
2017-08-13T09:58:15.580Z,25152
2017-08-13T09:59:16.318Z,24672
2017-08-13T10:00:17.063Z,17392
2017-08-13T10:01:17.808Z,90688
2017-08-13T10:02:18.573Z,94528
2017-08-13T10:03:19.312Z,91200
2017-08-13T10:04:20.076Z,92672
2017-08-13T10:05:20.831Z,96064
2017-08-13T10:06:21.591Z,78432
2017-08-13T10:07:22.335Z,88256
2017-08-13T10:08:23.080Z,94656
2017-08-13T10:09:23.832Z,14976
2017-08-13T10:10:24.603Z,87008
2017-08-13T10:11:25.346Z,91552
2017-08-13T10:12:26.092Z,88800
2017-08-13T10:13:26.837Z,92032
2017-08-13T10:14:27.586Z,86464
2017-08-13T10:15:28.332Z,89088
2017-08-13T10:16:29.082Z,52320
2017-08-13T10:17:29.832Z,24544
2017-08-13T10:18:30.576Z,62560
2017-08-13T10:19:31.324Z,81312
2017-08-13T10:20:32.067Z,21824
2017-08-13T10:21:32.814Z,45120
2017-08-13T10:22:33.576Z,22272
2017-08-13T10:23:34.339Z,91936
2017-08-13T10:24:35.159Z,97792
2017-08-13T10:25:35.852Z,99840
2017-08-13T10:26:36.591Z,31520
2017-08-13T10:27:37.336Z,37568
2017-08-13T10:28:38.102Z,90912
2017-08-13T10:29:38.841Z,90048
2017-08-13T10:30:39.591Z,93088
2017-08-13T10:31:40.332Z,88256
2017-08-13T10:32:41.088Z,89632
2017-08-13T10:33:41.834Z,85216
2017-08-13T10:34:42.601Z,21440
2017-08-13T10:35:43.347Z,17600
2017-08-13T10:36:44.092Z,13172
2017-08-13T10:37:44.834Z,10084
2017-08-13T10:38:45.572Z,7596
2017-08-13T10:39:46.309Z,5868
2017-08-13T10:40:47.047Z,4696
2017-08-13T10:41:47.783Z,4016
2017-08-13T10:42:48.544Z,3788
2017-08-13T10:43:49.278Z,3968
2017-08-13T10:44:50.019Z,4412
2017-08-13T10:45:50.749Z,5432
2017-08-13T10:46:51.491Z,7064
2017-08-13T10:47:52.230Z,8084
2017-08-13T10:48:52.991Z,8196
2017-08-13T10:49:53.725Z,8096
2017-08-13T10:50:54.460Z,6776
2017-08-13T10:51:55.201Z,5852
2017-08-13T10:52:55.935Z,5072
2017-08-13T10:53:56.668Z,4408
2017-08-13T10:54:57.426Z,3984
2017-08-13T10:55:58.187Z,3768
2017-08-13T10:56:58.922Z,3844
2017-08-13T10:57:59.658Z,4440
2017-08-13T10:59:00.402Z,5804
2017-08-13T11:00:01.131Z,8008
2017-08-13T11:01:01.872Z,10568
2017-08-13T11:02:02.612Z,18752
2017-08-13T11:03:03.370Z,17216
2017-08-13T11:04:04.111Z,26752
2017-08-13T11:05:04.852Z,22144
2017-08-13T11:06:05.585Z,20768
2017-08-13T11:07:06.324Z,20736
2017-08-13T11:08:07.060Z,19616
2017-08-13T11:09:07.799Z,21184
2017-08-13T11:10:08.536Z,23232
2017-08-13T11:11:09.299Z,29152
2017-08-13T11:12:10.032Z,15980
2017-08-13T11:13:10.794Z,16772
2017-08-13T11:14:11.531Z,21056
2017-08-13T11:15:12.266Z,42144
2017-08-13T11:16:13.005Z,78400
2017-08-13T11:17:13.744Z,35744
2017-08-13T11:18:14.483Z,51840
2017-08-13T11:19:15.228Z,79968
2017-08-13T11:20:15.992Z,88768
2017-08-13T11:21:16.756Z,51136
2017-08-13T11:22:17.496Z,39488
2017-08-13T11:23:18.231Z,36128
2017-08-13T11:24:18.971Z,55712
2017-08-13T11:25:19.707Z,66560
2017-08-13T11:26:20.474Z,82304
2017-08-13T11:27:21.212Z,30112
2017-08-13T11:28:21.950Z,33120
2017-08-13T11:29:22.687Z,31456
2017-08-13T11:30:23.431Z,67008
2017-08-13T11:31:24.167Z,90848
2017-08-13T11:32:24.906Z,90528
2017-08-13T11:33:25.648Z,91296
2017-08-13T11:34:26.390Z,90080
2017-08-13T11:35:27.132Z,95168
2017-08-13T11:36:27.875Z,80704
2017-08-13T11:37:28.615Z,66272
2017-08-13T11:38:29.356Z,36896
2017-08-13T11:39:30.099Z,35392
2017-08-13T11:40:30.864Z,76352
2017-08-13T11:41:31.606Z,23136
2017-08-13T11:42:32.342Z,22336
2017-08-13T11:43:33.084Z,26464
2017-08-13T11:44:33.824Z,22048
2017-08-13T11:45:34.585Z,90944
2017-08-13T11:46:35.350Z,95808
2017-08-13T11:47:36.114Z,92896
2017-08-13T11:48:36.857Z,59680
2017-08-13T11:49:37.596Z,60992
2017-08-13T11:50:38.341Z,57440
2017-08-13T11:51:39.107Z,40000
2017-08-13T11:52:39.847Z,25024
2017-08-13T11:53:40.592Z,36256
2017-08-13T11:54:41.330Z,39840
2017-08-13T11:55:42.073Z,91136
2017-08-13T11:56:42.819Z,86592
2017-08-13T11:57:43.587Z,90848
2017-08-13T11:58:44.327Z,87072
2017-08-13T11:59:45.093Z,83968
2017-08-13T12:00:45.835Z,78976
2017-08-13T12:01:46.579Z,37920
2017-08-13T12:02:47.324Z,61056
2017-08-13T12:03:48.069Z,94976
2017-08-13T12:04:48.808Z,79168
2017-08-13T12:05:49.553Z,52064
2017-08-13T12:06:50.296Z,90304
2017-08-13T12:07:51.039Z,84160
2017-08-13T12:08:51.807Z,34208
2017-08-13T12:09:52.550Z,29056
2017-08-13T12:10:53.296Z,18080
2017-08-13T12:11:54.038Z,18848
2017-08-13T12:12:54.804Z,89184
2017-08-13T12:13:55.544Z,87680
2017-08-13T12:14:56.288Z,87200
2017-08-13T12:15:57.037Z,83360
2017-08-13T12:16:57.803Z,84800
2017-08-13T12:17:58.580Z,86080
2017-08-13T12:18:59.327Z,88192
2017-08-13T12:20:00.078Z,85728
2017-08-13T12:21:00.834Z,84032
2017-08-13T12:22:01.590Z,87232
2017-08-13T12:23:02.338Z,88768
2017-08-13T12:24:03.096Z,85344
2017-08-13T12:25:03.848Z,82944
2017-08-13T12:26:04.601Z,84512
2017-08-13T12:27:05.352Z,84000
2017-08-13T12:28:06.098Z,85152
2017-08-13T12:29:06.847Z,85664
2017-08-13T12:30:07.600Z,82336
2017-08-13T12:31:08.368Z,81440
2017-08-13T12:32:09.117Z,77440
2017-08-13T12:33:09.871Z,78496
2017-08-13T12:34:10.619Z,83840
2017-08-13T12:35:11.370Z,81152
2017-08-13T12:36:12.124Z,79616
2017-08-13T12:37:12.873Z,74560
2017-08-13T12:38:13.624Z,63776
2017-08-13T12:39:14.372Z,52608
2017-08-13T12:40:15.124Z,76416
2017-08-13T12:41:15.895Z,41344
2017-08-13T12:42:16.645Z,26432
2017-08-13T12:43:17.390Z,30304
2017-08-13T12:44:18.146Z,73952
2017-08-13T12:45:18.900Z,21792
2017-08-13T12:46:19.641Z,15976
2017-08-13T12:47:20.392Z,12784
2017-08-13T12:48:21.144Z,11020
2017-08-13T12:49:21.884Z,9692
2017-08-13T12:50:22.634Z,9184
2017-08-13T12:51:23.372Z,10964
2017-08-13T12:52:24.112Z,21184
2017-08-13T12:53:24.879Z,35008
2017-08-13T12:54:25.626Z,17248
2017-08-13T12:55:26.388Z,18240
2017-08-13T12:56:27.129Z,45984
2017-08-13T12:57:27.892Z,23040
2017-08-13T12:58:28.630Z,19744
2017-08-13T12:59:29.393Z,16004
2017-08-13T13:00:30.129Z,13764
2017-08-13T13:01:30.867Z,12492
2017-08-13T13:02:31.636Z,11452
2017-08-13T13:03:32.370Z,10764
2017-08-13T13:04:33.105Z,11072
2017-08-13T13:05:33.846Z,11260
2017-08-13T13:06:34.582Z,11728
2017-08-13T13:07:35.321Z,11464
2017-08-13T13:08:36.084Z,11032
2017-08-13T13:09:36.820Z,10848
2017-08-13T13:10:37.558Z,12644
2017-08-13T13:11:38.294Z,12168
2017-08-13T13:12:39.053Z,10708
2017-08-13T13:13:39.793Z,9456
2017-08-13T13:14:40.529Z,8696
2017-08-13T13:15:41.265Z,8248
2017-08-13T13:16:41.998Z,7936
2017-08-13T13:17:42.755Z,7732
2017-08-13T13:18:43.516Z,7452
2017-08-13T13:19:44.248Z,6952
2017-08-13T13:20:44.983Z,6508
2017-08-13T13:21:45.741Z,5992
2017-08-13T13:22:46.474Z,5500
2017-08-13T13:23:47.210Z,5060
2017-08-13T13:24:47.946Z,4648
2017-08-13T13:25:48.679Z,4308
2017-08-13T13:26:49.414Z,4080
2017-08-13T13:27:50.152Z,3884
2017-08-13T13:28:50.911Z,3768
2017-08-13T13:29:51.647Z,3728
2017-08-13T13:30:52.403Z,3692
2017-08-13T13:31:53.141Z,3728
2017-08-13T13:32:53.877Z,3820
2017-08-13T13:33:54.614Z,4032
2017-08-13T13:34:55.346Z,4380
2017-08-13T13:35:56.081Z,4840
2017-08-13T13:36:56.844Z,5516
2017-08-13T13:37:57.582Z,6376
2017-08-13T13:38:58.313Z,7520
2017-08-13T13:39:59.065Z,9044
2017-08-13T13:40:59.787Z,11700
2017-08-13T13:42:00.554Z,67744
2017-08-13T13:43:01.316Z,67200